Skip Navigation Links Skip Navigation Links

Current Weather

Santacruz Apt, Mumbai (Bombay), India

For information only: do not use for flight planning or navigation.
Latest weather
Observation time Thursday, October 17, 2019 11:30 AM IST
Local time Thursday, October 17, 2019 11:45 AM IST
Flight conditions Instrument Meteorological Conditions
Winds
Wind direction Southeast (130°)
Wind speed 5 mph
Visibility 1.9 mi.
Present weather smoke
Sky condition
Ceiling unlimited
Cloud layer few clouds 10,000 ft.
Temperature 93°F
Dewpoint 70°F
Altimeter 29.85 in.Hg
Derived measurements
Relative humidity 47%
Heat index 99°F
Density altitude 2617 ft.
Remarks
No significant changes expected in the next two hours.
METAR VABB 170600Z 13004KT 3000 FU FEW100 34/21 Q1011 NOSIG

Settings

Location code

InnerDrive.Weather 4.0.6770.0 Release CLR 4.0.30319.42000
Copyright ©2018 Inner Drive Technology. All rights reserved. Portions Copyright ©1986-2018 David Braverman.

Find weather

Site navigation


Skip Navigation Links

Place info

Page info

PayPal - The safer, easier way to pay online!

Return home.

Copyright ©2019 Inner Drive Technology. Purveyors of fine, hand-crafted computer software. Page printed 2019-10-17T06:15:11 UTC.